Time;durP1;ratioP1;P1;durP2;ratioP2;P2;SDS_P1;SDS_P2;PMS_P1;PMS_P2;Temp;Humidity;BMP_temperature;BMP_pressure;BME280_temperature;BME280_humidity;BME280_pressure;Samples;Min_cycle;Max_cycle;Signal;HPM_P1;HPM_P2
2023/09/26 00:02:53;;;;;;;5.28;2.08;;;23.50;76.40;;;;;;10541650;28;20122;-38
2023/09/26 00:07:55;;;;;;;4.07;1.75;;;23.50;76.60;;;;;;10523980;28;20048;-39
2023/09/26 00:12:57;;;;;;;3.17;1.98;;;23.50;76.50;;;;;;10530217;28;20056;-40
2023/09/26 00:18:02;;;;;;;3.38;1.90;;;23.50;76.60;;;;;;10535232;28;20055;-33
2023/09/26 00:23:04;;;;;;;2.05;1.50;;;23.50;76.70;;;;;;10532598;28;20495;-30
2023/09/26 00:28:07;;;;;;;3.35;2.03;;;23.40;76.50;;;;;;10538114;28;20051;-35
2023/09/26 00:33:10;;;;;;;1.98;1.50;;;23.40;76.60;;;;;;10524433;28;20051;-32
2023/09/26 00:38:12;;;;;;;3.47;1.63;;;23.40;76.60;;;;;;10540867;28;20139;-31
2023/09/26 00:43:21;;;;;;;4.05;1.55;;;23.40;76.60;;;;;;10529493;28;20052;-31
2023/09/26 00:48:25;;;;;;;3.97;1.77;;;23.40;76.70;;;;;;10555590;28;20050;-35
2023/09/26 00:53:28;;;;;;;3.00;1.60;;;23.40;76.90;;;;;;10545350;28;20079;-38
2023/09/26 00:58:31;;;;;;;4.63;1.70;;;23.30;76.90;;;;;;10537387;28;20043;-37
2023/09/26 01:03:35;;;;;;;2.70;1.33;;;23.40;76.80;;;;;;10535512;28;20044;-35
2023/09/26 01:08:37;;;;;;;2.63;1.67;;;23.30;76.90;;;;;;10531812;28;20039;-36
2023/09/26 01:13:39;;;;;;;2.60;1.55;;;23.30;76.70;;;;;;10528196;28;20056;-32
2023/09/26 01:18:42;;;;;;;2.50;1.70;;;23.30;76.90;;;;;;10518086;28;20146;-39
2023/09/26 01:23:48;;;;;;;3.22;1.60;;;23.30;77.00;;;;;;10535928;28;20044;-33
2023/09/26 01:28:52;;;;;;;2.80;1.77;;;23.30;77.00;;;;;;10532244;28;20051;-37
2023/09/26 01:33:54;;;;;;;2.85;1.20;;;23.30;77.00;;;;;;10531056;28;20048;-37
2023/09/26 01:38:55;;;;;;;2.83;1.70;;;23.30;77.10;;;;;;10530888;28;20083;-41
2023/09/26 01:43:59;;;;;;;2.83;1.52;;;23.20;77.10;;;;;;10525237;28;20123;-36
2023/09/26 01:49:01;;;;;;;1.58;1.15;;;23.20;77.10;;;;;;10530496;28;20072;-36
2023/09/26 01:54:03;;;;;;;3.10;1.70;;;23.20;77.20;;;;;;10531660;28;20059;-33
2023/09/26 01:59:06;;;;;;;;;;;23.20;77.30;;;;;;10538361;28;20516;-33
2023/09/26 02:04:08;;;;;;;3.80;1.45;;;23.10;77.30;;;;;;10529030;28;19924;-40
2023/09/26 02:09:09;;;;;;;2.65;1.40;;;23.10;77.40;;;;;;10530816;28;20125;-40
2023/09/26 02:14:13;;;;;;;2.28;1.55;;;23.10;77.30;;;;;;10524810;28;20088;-35
2023/09/26 02:19:14;;;;;;;2.85;1.50;;;23.10;77.30;;;;;;10527657;28;20726;-31
2023/09/26 02:24:16;;;;;;;2.75;1.33;;;23.10;77.30;;;;;;10518623;28;20079;-34
2023/09/26 02:29:20;;;;;;;3.30;1.30;;;23.10;77.50;;;;;;10529862;28;20048;-34
2023/09/26 02:34:22;;;;;;;2.78;1.58;;;23.10;77.50;;;;;;10528271;28;20167;-31
2023/09/26 02:39:24;;;;;;;2.88;1.77;;;23.00;77.50;;;;;;10529475;28;20508;-33
2023/09/26 02:44:27;;;;;;;2.95;1.83;;;23.00;77.50;;;;;;10526609;28;20078;-35
2023/09/26 02:49:29;;;;;;;2.63;1.13;;;23.00;77.60;;;;;;10529486;28;20063;-32
2023/09/26 02:54:31;;;;;;;3.13;1.60;;;23.00;77.60;;;;;;10529369;28;20435;-35
2023/09/26 02:59:34;;;;;;;2.13;1.42;;;23.00;77.60;;;;;;10526061;28;20454;-32
2023/09/26 03:04:36;;;;;;;2.70;1.63;;;23.00;77.70;;;;;;10526726;28;20055;-35
2023/09/26 03:15:29;;;;;;;2.30;1.40;;;22.90;77.50;;;;;;10468774;27;2271312;-32
2023/09/26 03:20:31;;;;;;;4.00;1.42;;;22.90;77.90;;;;;;10554959;28;20071;-33
2023/09/26 03:25:34;;;;;;;3.28;1.55;;;22.90;77.80;;;;;;10548393;28;20076;-33
2023/09/26 03:30:40;;;;;;;2.38;1.58;;;22.90;77.90;;;;;;10561153;28;20126;-36
2023/09/26 03:35:42;;;;;;;2.67;1.70;;;22.90;77.80;;;;;;10540401;28;20135;-31
2023/09/26 03:40:44;;;;;;;3.40;1.88;;;22.90;77.80;;;;;;10554284;28;20123;-38
2023/09/26 03:45:47;;;;;;;2.25;1.60;;;22.80;77.70;;;;;;10572871;28;20075;-39
2023/09/26 03:50:49;;;;;;;2.78;1.60;;;22.90;77.80;;;;;;10559784;28;20044;-36
2023/09/26 03:55:54;;;;;;;;;;;22.90;77.60;;;;;;10563227;28;20044;-36
2023/09/26 04:01:08;;;;;;;2.50;1.63;;;22.90;77.90;;;;;;10562501;28;19923;-40
2023/09/26 04:06:10;;;;;;;2.40;1.40;;;22.80;77.80;;;;;;10563379;28;20054;-31
2023/09/26 04:11:15;;;;;;;;;;;22.80;77.90;;;;;;10566226;28;20059;-40
2023/09/26 04:16:18;;;;;;;1.90;1.50;;;22.80;77.70;;;;;;10542351;28;19928;-32
2023/09/26 04:21:20;;;;;;;2.53;1.75;;;22.80;77.90;;;;;;10564779;28;20766;-32
2023/09/26 04:26:23;;;;;;;3.20;1.58;;;22.80;77.80;;;;;;10540616;28;20052;-39
2023/09/26 04:31:26;;;;;;;1.85;1.42;;;22.80;77.70;;;;;;10523292;28;20048;-30
2023/09/26 04:36:29;;;;;;;2.00;1.58;;;22.80;78.30;;;;;;10523949;28;20550;-37
2023/09/26 04:41:31;;;;;;;3.22;1.95;;;22.80;77.70;;;;;;10530935;28;20068;-38
2023/09/26 04:46:34;;;;;;;3.13;1.30;;;22.80;77.60;;;;;;10515524;28;20068;-40
2023/09/26 04:51:36;;;;;;;2.35;1.70;;;22.80;77.70;;;;;;10506400;28;20134;-37
2023/09/26 04:56:38;;;;;;;2.17;1.67;;;22.80;77.70;;;;;;10515463;28;20137;-36
2023/09/26 05:01:45;;;;;;;3.42;1.70;;;22.70;77.20;;;;;;10532892;28;20103;-33
2023/09/26 05:06:47;;;;;;;3.40;1.75;;;22.70;77.30;;;;;;10541492;28;20587;-41
2023/09/26 05:11:49;;;;;;;2.13;1.70;;;22.70;77.90;;;;;;10522311;28;20048;-43
2023/09/26 05:16:52;;;;;;;;;;;22.70;77.90;;;;;;10527732;28;20146;-33
2023/09/26 05:21:54;;;;;;;3.33;1.80;;;22.70;78.20;;;;;;10518801;28;19924;-37
2023/09/26 05:26:56;;;;;;;2.88;1.80;;;22.70;78.10;;;;;;10519293;28;20044;-45
2023/09/26 05:31:59;;;;;;;3.70;1.85;;;22.70;78.10;;;;;;10522048;28;20090;-39
2023/09/26 05:37:01;;;;;;;4.72;2.05;;;22.70;78.20;;;;;;10519752;28;20550;-43
2023/09/26 05:42:03;;;;;;;;;;;22.70;78.10;;;;;;10512328;28;20049;-47
2023/09/26 05:47:06;;;;;;;4.15;1.92;;;22.70;77.90;;;;;;10514023;28;19920;-45
2023/09/26 05:52:08;;;;;;;4.60;1.95;;;22.70;78.80;;;;;;10513802;28;20066;-41
2023/09/26 05:57:10;;;;;;;2.42;1.90;;;22.60;78.30;;;;;;10504024;28;20075;-41
2023/09/26 06:02:14;;;;;;;6.45;2.00;;;22.70;78.40;;;;;;10500810;28;20097;-35
2023/09/26 06:07:16;;;;;;;3.97;1.77;;;22.60;78.50;;;;;;10523757;28;20991;-34
2023/09/26 06:12:18;;;;;;;4.15;1.80;;;22.60;78.60;;;;;;10516672;28;20089;-32
2023/09/26 06:17:22;;;;;;;5.63;2.50;;;22.60;78.50;;;;;;10514320;28;20089;-40
2023/09/26 06:22:23;;;;;;;2.63;1.75;;;22.60;78.50;;;;;;10514513;28;20090;-38
2023/09/26 06:27:25;;;;;;;4.13;2.95;;;22.60;78.50;;;;;;10513211;28;20110;-40
2023/09/26 06:32:29;;;;;;;5.78;2.10;;;22.60;78.60;;;;;;10517101;28;20098;-34
2023/09/26 06:37:31;;;;;;;6.65;2.58;;;22.60;79.00;;;;;;10527056;28;20047;-39
2023/09/26 06:42:33;;;;;;;6.47;2.35;;;22.60;78.30;;;;;;10516377;28;20093;-32
2023/09/26 06:47:36;;;;;;;4.97;2.42;;;22.60;78.40;;;;;;10505543;28;20075;-32
2023/09/26 06:52:38;;;;;;;3.47;2.15;;;22.60;78.40;;;;;;10515706;28;20101;-31
2023/09/26 06:57:41;;;;;;;8.02;2.47;;;22.60;78.30;;;;;;10508749;28;20131;-31
2023/09/26 07:02:45;;;;;;;5.95;2.65;;;22.70;78.20;;;;;;10507754;28;20132;-32
2023/09/26 07:07:47;;;;;;;5.70;2.40;;;22.70;78.20;;;;;;10503244;28;20063;-40
2023/09/26 07:12:49;;;;;;;4.65;2.20;;;22.70;78.00;;;;;;10526087;28;20507;-34
2023/09/26 07:17:52;;;;;;;6.15;2.83;;;22.70;77.60;;;;;;10498006;28;20168;-44
2023/09/26 07:22:54;;;;;;;5.53;2.25;;;22.70;77.90;;;;;;10508005;28;20048;-39
2023/09/26 07:27:56;;;;;;;8.07;2.47;;;22.80;77.70;;;;;;10528026;28;20070;-33
2023/09/26 07:32:59;;;;;;;;;;;22.80;77.80;;;;;;10503074;28;20126;-31
2023/09/26 07:38:01;;;;;;;4.13;2.35;;;22.80;77.70;;;;;;10513639;28;19976;-40
2023/09/26 07:43:03;;;;;;;4.57;2.13;;;22.80;77.80;;;;;;10507122;28;20136;-31
2023/09/26 07:48:06;;;;;;;;;;;22.80;78.00;;;;;;10497620;28;20102;-33
2023/09/26 07:53:09;;;;;;;5.95;2.78;;;22.80;77.80;;;;;;10507239;28;19977;-34
2023/09/26 07:58:11;;;;;;;4.78;2.63;;;22.80;77.90;;;;;;10508147;28;20050;-34
2023/09/26 08:03:14;;;;;;;5.78;2.80;;;22.80;78.00;;;;;;10512446;28;20048;-36
2023/09/26 08:08:16;;;;;;;7.55;2.63;;;22.80;78.00;;;;;;10510373;28;20048;-54
2023/09/26 08:13:19;;;;;;;5.78;2.90;;;22.90;78.10;;;;;;10506587;28;20113;-40
2023/09/26 08:18:23;;;;;;;4.60;2.47;;;22.90;77.90;;;;;;10503026;28;20048;-39
2023/09/26 08:23:25;;;;;;;4.38;2.70;;;22.90;77.80;;;;;;10506488;28;20100;-36
2023/09/26 08:28:28;;;;;;;4.90;2.55;;;23.00;77.90;;;;;;10502555;28;20040;-36
2023/09/26 08:33:31;;;;;;;6.50;2.45;;;23.00;77.70;;;;;;10526258;28;20052;-41
2023/09/26 08:38:33;;;;;;;4.20;2.28;;;23.00;78.20;;;;;;10518420;28;20408;-34
2023/09/26 08:43:36;;;;;;;2.97;2.25;;;23.00;79.50;;;;;;10519585;28;20064;-48
2023/09/26 08:48:40;;;;;;;6.93;2.72;;;23.00;79.80;;;;;;10532057;28;20052;-33
2023/09/26 08:53:42;;;;;;;8.27;3.22;;;23.00;79.10;;;;;;10520990;28;20120;-38
2023/09/26 08:58:48;;;;;;;6.95;3.10;;;23.00;78.90;;;;;;10516055;28;20113;-35
2023/09/26 09:03:52;;;;;;;11.40;3.45;;;23.10;78.50;;;;;;10532404;28;20040;-37
2023/09/26 09:09:08;;;;;;;9.85;4.13;;;23.10;78.50;;;;;;10531589;28;20093;-43
2023/09/26 09:14:10;;;;;;;11.63;4.22;;;23.10;78.20;;;;;;10513036;28;20052;-33
2023/09/26 09:19:13;;;;;;;11.23;4.45;;;23.10;78.00;;;;;;10521636;28;20048;-30
2023/09/26 09:24:15;;;;;;;14.80;3.95;;;23.20;77.70;;;;;;10521144;28;20141;-40
2023/09/26 09:29:18;;;;;;;13.95;3.60;;;23.10;78.40;;;;;;10520509;28;20048;-32
2023/09/26 09:34:25;;;;;;;5.65;3.03;;;23.40;76.60;;;;;;10519710;28;20051;-42
2023/09/26 09:39:27;;;;;;;10.77;3.42;;;23.30;76.70;;;;;;10528784;28;20503;-42
2023/09/26 09:44:30;;;;;;;;;;;23.40;76.20;;;;;;10526592;28;20048;-38
2023/09/26 09:49:41;;;;;;;9.98;4.10;;;23.10;78.00;;;;;;10517218;28;19942;-30
2023/09/26 09:54:45;;;;;;;6.10;2.80;;;23.30;76.80;;;;;;10528308;28;20109;-32
2023/09/26 09:59:47;;;;;;;6.82;3.00;;;23.70;74.90;;;;;;10519240;28;20440;-34
2023/09/26 10:04:55;;;;;;;7.80;3.28;;;23.50;75.10;;;;;;10511698;28;20044;-34
2023/09/26 10:09:58;;;;;;;9.18;4.53;;;23.40;75.50;;;;;;10514038;28;20048;-39
2023/09/26 10:15:00;;;;;;;9.52;3.80;;;23.50;75.50;;;;;;10507510;28;20528;-33
2023/09/26 10:20:04;;;;;;;6.78;3.75;;;23.70;75.10;;;;;;10524904;28;20051;-32
2023/09/26 10:25:07;;;;;;;8.18;3.88;;;23.90;73.30;;;;;;10505982;28;20048;-41
2023/09/26 10:30:11;;;;;;;8.00;3.97;;;23.50;75.00;;;;;;10524051;28;20086;-32
2023/09/26 10:35:28;;;;;;;6.68;3.75;;;23.40;76.90;;;;;;10511739;28;20084;-32
2023/09/26 10:40:30;;;;;;;9.07;3.13;;;23.60;75.20;;;;;;10521966;28;20047;-40
2023/09/26 10:45:32;;;;;;;;;;;23.90;74.10;;;;;;10526254;28;20476;-36
2023/09/26 10:50:35;;;;;;;7.03;3.20;;;24.30;71.70;;;;;;10514584;28;19978;-40
2023/09/26 10:55:39;;;;;;;8.50;2.97;;;24.40;70.00;;;;;;10517587;28;20051;-37
2023/09/26 11:00:50;;;;;;;6.05;2.63;;;24.20;71.10;;;;;;10522200;28;20044;-39
2023/09/26 11:05:54;;;;;;;13.27;3.27;;;24.00;72.50;;;;;;10504971;28;20044;-40
2023/09/26 11:10:58;;;;;;;7.15;2.67;;;23.80;72.90;;;;;;10515753;28;20109;-48
2023/09/26 11:15:59;;;;;;;6.68;2.67;;;23.80;73.30;;;;;;10512748;28;20063;-43
2023/09/26 11:21:04;;;;;;;5.38;2.15;;;23.80;72.90;;;;;;10517194;28;20054;-33
2023/09/26 11:26:07;;;;;;;5.10;2.15;;;23.90;73.20;;;;;;10517073;28;20055;-35
2023/09/26 11:31:10;;;;;;;5.10;2.10;;;23.80;73.00;;;;;;10526092;28;20063;-38
2023/09/26 11:36:14;;;;;;;2.78;1.80;;;23.90;72.60;;;;;;10510070;28;20087;-32
2023/09/26 11:41:16;;;;;;;6.18;2.15;;;24.00;72.60;;;;;;10514862;28;20658;-45
2023/09/26 11:46:19;;;;;;;5.45;2.33;;;24.20;70.20;;;;;;10527878;28;20132;-33
2023/09/26 11:51:22;;;;;;;3.72;1.80;;;24.40;69.60;;;;;;10524808;28;20485;-34
2023/09/26 11:56:28;;;;;;;5.10;1.85;;;24.70;67.70;;;;;;10527344;28;20496;-35
2023/09/26 12:01:30;;;;;;;5.85;1.92;;;24.30;70.20;;;;;;10508984;28;20058;-39
2023/09/26 12:06:34;;;;;;;4.63;1.70;;;24.30;70.50;;;;;;10519867;28;20456;-32
2023/09/26 12:11:36;;;;;;;2.10;1.42;;;24.60;69.30;;;;;;10522231;28;20058;-40
2023/09/26 12:16:38;;;;;;;3.17;2.00;;;24.60;68.90;;;;;;10515162;28;20824;-39
2023/09/26 12:21:41;;;;;;;;;;;24.60;69.20;;;;;;10532657;28;20099;-40
2023/09/26 12:26:46;;;;;;;3.72;1.85;;;24.50;69.50;;;;;;10532435;28;20529;-32
2023/09/26 12:31:48;;;;;;;3.38;1.50;;;24.90;69.00;;;;;;10517982;28;20051;-36
2023/09/26 12:36:51;;;;;;;4.38;2.00;;;24.80;68.90;;;;;;10524306;28;20135;-33
2023/09/26 12:41:53;;;;;;;2.33;1.67;;;25.10;67.80;;;;;;10521554;28;20098;-33
2023/09/26 12:46:55;;;;;;;6.07;1.70;;;25.30;67.20;;;;;;10526242;28;20048;-36
2023/09/26 12:51:58;;;;;;;6.70;1.88;;;25.50;66.90;;;;;;10527747;28;20284;-38
2023/09/26 12:57:02;;;;;;;5.55;1.60;;;25.50;66.50;;;;;;10540401;28;20822;-32
2023/09/26 13:02:04;;;;;;;4.82;1.50;;;25.40;67.20;;;;;;10529983;28;20044;-38
2023/09/26 13:07:07;;;;;;;3.80;1.52;;;25.50;66.30;;;;;;10512025;28;20473;-37
2023/09/26 13:12:09;;;;;;;3.65;1.85;;;25.40;65.20;;;;;;10527088;28;20067;-35
2023/09/26 13:17:12;;;;;;;5.22;1.60;;;25.60;64.70;;;;;;10517963;28;20160;-40
2023/09/26 13:22:15;;;;;;;5.65;1.75;;;25.60;64.50;;;;;;10513509;28;20127;-37
2023/09/26 13:27:18;;;;;;;9.25;2.05;;;25.70;62.60;;;;;;10510888;28;20147;-39
2023/09/26 13:32:19;;;;;;;2.45;1.23;;;25.30;61.70;;;;;;10505612;28;20048;-35
2023/09/26 13:37:23;;;;;;;3.15;1.83;;;25.30;66.30;;;;;;10514413;28;20473;-33
2023/09/26 13:42:25;;;;;;;2.13;1.23;;;25.50;65.10;;;;;;10526829;28;20064;-39
2023/09/26 13:47:26;;;;;;;;;;;25.50;65.40;;;;;;10511838;28;20084;-41
2023/09/26 13:52:30;;;;;;;3.97;1.27;;;25.50;65.60;;;;;;10522800;28;19920;-34
2023/09/26 13:57:32;;;;;;;1.88;1.35;;;25.50;65.80;;;;;;10512076;28;20054;-34
2023/09/26 14:02:33;;;;;;;1.63;1.02;;;25.40;66.20;;;;;;10510647;28;20052;-30
2023/09/26 14:07:36;;;;;;;;;;;25.50;65.70;;;;;;10512349;28;20089;-36
2023/09/26 14:12:38;;;;;;;2.55;1.42;;;25.50;65.90;;;;;;10505824;28;19924;-34
2023/09/26 14:17:40;;;;;;;2.13;1.30;;;25.50;66.60;;;;;;10509069;28;20051;-32
2023/09/26 14:22:44;;;;;;;3.50;1.30;;;25.50;66.40;;;;;;10506605;28;20079;-35
2023/09/26 14:27:48;;;;;;;2.45;1.33;;;25.80;65.70;;;;;;10509009;28;20082;-35
2023/09/26 14:32:50;;;;;;;2.67;1.45;;;25.90;65.00;;;;;;10508598;28;20710;-32
2023/09/26 14:37:53;;;;;;;2.83;1.63;;;26.10;65.30;;;;;;10512345;28;20133;-40
2023/09/26 14:42:55;;;;;;;2.00;1.30;;;25.90;65.20;;;;;;10516472;28;20039;-32
2023/09/26 14:47:58;;;;;;;1.52;1.27;;;25.80;66.30;;;;;;10511480;28;20055;-33
2023/09/26 14:53:01;;;;;;;2.30;1.27;;;25.70;67.10;;;;;;10513098;28;20043;-35
2023/09/26 14:58:02;;;;;;;3.08;1.40;;;25.70;67.40;;;;;;10527488;28;20045;-35
2023/09/26 15:03:05;;;;;;;3.90;1.60;;;25.70;67.60;;;;;;10511804;28;20474;-34
2023/09/26 15:08:08;;;;;;;2.88;1.48;;;25.90;67.20;;;;;;10512333;28;20048;-32
2023/09/26 15:13:12;;;;;;;4.47;1.73;;;25.80;67.90;;;;;;10511955;28;20052;-35
2023/09/26 15:18:14;;;;;;;2.28;1.33;;;25.80;67.50;;;;;;10515993;28;20048;-37
2023/09/26 15:23:17;;;;;;;1.88;1.17;;;25.90;67.60;;;;;;10507225;28;20063;-38
2023/09/26 15:28:19;;;;;;;2.08;1.45;;;25.90;68.50;;;;;;10510441;28;20681;-34
2023/09/26 15:33:21;;;;;;;1.40;1.20;;;25.90;68.00;;;;;;10519397;28;20056;-37
2023/09/26 15:38:24;;;;;;;6.32;2.47;;;25.80;68.20;;;;;;10517516;28;20036;-41
2023/09/26 15:43:27;;;;;;;2.70;1.42;;;25.90;68.10;;;;;;10503855;28;20131;-34
2023/09/26 15:48:29;;;;;;;3.25;1.38;;;25.90;68.00;;;;;;10500542;28;20442;-43
2023/09/26 15:53:32;;;;;;;1.85;1.23;;;26.00;67.10;;;;;;10509878;28;20512;-44
2023/09/26 15:58:34;;;;;;;5.22;1.40;;;26.10;68.10;;;;;;10517597;28;20132;-33
2023/09/26 16:03:35;;;;;;;;;;;26.10;67.60;;;;;;10521229;28;20056;-38
2023/09/26 16:08:43;;;;;;;2.00;1.17;;;26.20;67.40;;;;;;10516603;28;19928;-37
2023/09/26 16:13:45;;;;;;;3.22;1.52;;;26.20;67.20;;;;;;10522251;28;20452;-41
2023/09/26 16:18:47;;;;;;;2.45;1.38;;;26.20;67.20;;;;;;10506084;28;20356;-32
2023/09/26 16:23:51;;;;;;;2.40;1.15;;;26.20;68.00;;;;;;10520460;28;20053;-32
2023/09/26 16:28:53;;;;;;;2.33;1.48;;;26.20;67.20;;;;;;10512592;28;20059;-37
2023/09/26 16:33:55;;;;;;;3.28;1.30;;;26.10;67.30;;;;;;10525226;28;20105;-41
2023/09/26 16:38:58;;;;;;;2.80;1.30;;;26.20;67.80;;;;;;10514852;28;20143;-41
2023/09/26 16:44:00;;;;;;;1.63;1.17;;;26.20;67.90;;;;;;10523481;28;20090;-37
2023/09/26 16:49:02;;;;;;;;;;;26.20;68.70;;;;;;10519074;28;20106;-36
2023/09/26 16:54:05;;;;;;;;;;;26.10;68.30;;;;;;10521274;28;19923;-34
2023/09/26 16:59:07;;;;;;;4.80;1.77;;;26.10;68.40;;;;;;10524573;28;19927;-34
2023/09/26 17:04:09;;;;;;;2.40;1.50;;;26.10;67.90;;;;;;10526025;28;20554;-39
2023/09/26 17:09:12;;;;;;;1.88;1.52;;;26.20;68.60;;;;;;10511387;28;20114;-34
2023/09/26 17:14:14;;;;;;;3.03;2.22;;;26.20;68.00;;;;;;10523848;28;20618;-37
2023/09/26 17:19:16;;;;;;;3.83;1.83;;;26.00;68.00;;;;;;10521707;28;20059;-42
2023/09/26 17:24:19;;;;;;;3.67;1.77;;;26.00;68.10;;;;;;10517997;28;20532;-36
2023/09/26 17:29:21;;;;;;;2.90;1.80;;;26.00;68.10;;;;;;10517457;28;20040;-38
2023/09/26 17:34:23;;;;;;;2.80;1.88;;;25.90;68.10;;;;;;10517573;28;20075;-32
2023/09/26 17:39:26;;;;;;;2.67;1.52;;;26.00;68.40;;;;;;10523078;28;20072;-39
2023/09/26 17:44:28;;;;;;;2.35;1.65;;;25.90;68.50;;;;;;10521319;28;20047;-38
2023/09/26 17:49:30;;;;;;;3.58;1.67;;;25.90;68.80;;;;;;10531873;28;20040;-40
2023/09/26 17:54:33;;;;;;;3.80;1.83;;;25.90;69.10;;;;;;10522328;28;20060;-31
2023/09/26 17:59:35;;;;;;;2.65;1.73;;;25.90;69.30;;;;;;10524574;28;20121;-45
2023/09/26 18:04:37;;;;;;;;;;;25.90;69.60;;;;;;10505552;28;20054;-34
2023/09/26 18:09:40;;;;;;;4.80;1.90;;;25.80;69.60;;;;;;10525933;28;20289;-41
2023/09/26 18:14:43;;;;;;;3.75;2.10;;;25.80;69.90;;;;;;10521573;28;20064;-36
2023/09/26 18:19:45;;;;;;;3.10;1.88;;;25.80;70.20;;;;;;10513267;28;20141;-34
2023/09/26 18:24:49;;;;;;;2.80;2.13;;;25.70;70.50;;;;;;10513226;28;20616;-38
2023/09/26 18:29:51;;;;;;;2.83;2.00;;;25.70;70.70;;;;;;10518640;28;20049;-37
2023/09/26 18:34:53;;;;;;;2.85;1.73;;;25.60;71.00;;;;;;10513191;28;20048;-41
2023/09/26 18:39:56;;;;;;;4.50;2.00;;;25.60;71.10;;;;;;10524481;28;20075;-44
2023/09/26 18:45:00;;;;;;;5.13;1.70;;;25.60;71.30;;;;;;10518951;28;20043;-37
2023/09/26 18:50:02;;;;;;;5.47;1.70;;;25.50;71.50;;;;;;10510339;28;20225;-29
2023/09/26 18:55:06;;;;;;;3.05;1.83;;;25.50;71.60;;;;;;10522151;28;20485;-32
2023/09/26 19:00:09;;;;;;;3.85;2.28;;;25.50;71.90;;;;;;10529106;28;20044;-35
2023/09/26 19:05:11;;;;;;;3.20;1.52;;;25.50;71.80;;;;;;10512119;28;20522;-42
2023/09/26 19:10:15;;;;;;;3.38;1.75;;;25.50;71.80;;;;;;10524482;28;20112;-33
2023/09/26 19:15:17;;;;;;;7.53;2.20;;;25.40;72.00;;;;;;10521747;28;20059;-36
2023/09/26 19:20:19;;;;;;;3.40;2.15;;;25.40;72.10;;;;;;10511740;28;20040;-38
2023/09/26 19:25:22;;;;;;;3.38;1.80;;;25.40;72.10;;;;;;10511398;28;20072;-44
2023/09/26 19:30:25;;;;;;;3.67;2.20;;;25.40;71.90;;;;;;10507960;28;20158;-41
2023/09/26 19:35:27;;;;;;;2.22;1.45;;;25.40;71.90;;;;;;10507176;28;20473;-37
2023/09/26 19:40:30;;;;;;;4.82;2.00;;;25.40;72.10;;;;;;10515081;28;20071;-44
2023/09/26 19:45:32;;;;;;;2.30;1.80;;;25.30;72.10;;;;;;10515838;28;20084;-37
2023/09/26 19:50:34;;;;;;;4.75;1.90;;;25.30;72.10;;;;;;10517873;28;20127;-40
2023/09/26 19:55:37;;;;;;;2.90;1.65;;;25.20;72.30;;;;;;10522148;28;20083;-36
2023/09/26 20:00:41;;;;;;;3.47;2.05;;;25.20;72.20;;;;;;10523907;28;20621;-39
2023/09/26 20:05:43;;;;;;;4.13;1.92;;;25.20;72.30;;;;;;10531261;28;20044;-42
2023/09/26 20:10:47;;;;;;;3.88;2.10;;;25.20;72.40;;;;;;10512116;28;20854;-41
2023/09/26 20:15:49;;;;;;;6.97;2.60;;;25.10;72.70;;;;;;10526271;28;20051;-34
2023/09/26 20:20:51;;;;;;;;;;;25.00;72.30;;;;;;10519799;28;20153;-32
2023/09/26 20:25:59;;;;;;;3.28;1.77;;;24.30;75.70;;;;;;10516412;28;19935;-40
2023/09/26 20:31:01;;;;;;;2.78;1.60;;;24.90;74.20;;;;;;10513106;28;20090;-37
2023/09/26 20:36:03;;;;;;;3.55;1.90;;;25.00;73.20;;;;;;10515907;28;20063;-36
2023/09/26 20:41:08;;;;;;;3.15;1.70;;;25.00;73.00;;;;;;10515829;28;20440;-34
2023/09/26 20:46:10;;;;;;;2.80;1.77;;;25.00;73.00;;;;;;10508528;28;20491;-40
2023/09/26 20:51:12;;;;;;;4.00;1.60;;;25.00;72.80;;;;;;10509812;28;20119;-31
2023/09/26 20:56:16;;;;;;;3.63;2.00;;;25.00;72.80;;;;;;10509947;28;20489;-39
2023/09/26 21:01:18;;;;;;;4.43;1.67;;;25.00;73.00;;;;;;10518982;28;20051;-30
2023/09/26 21:06:20;;;;;;;4.18;1.90;;;25.00;73.00;;;;;;10521233;28;20048;-39
2023/09/26 21:11:23;;;;;;;;;;;25.00;73.10;;;;;;10519640;28;20050;-35
2023/09/26 21:16:25;;;;;;;2.88;1.40;;;24.70;74.40;;;;;;10523576;28;19924;-32
2023/09/26 21:21:28;;;;;;;3.17;1.67;;;24.80;74.20;;;;;;10518388;28;20049;-34
2023/09/26 21:26:32;;;;;;;2.00;1.48;;;24.70;73.70;;;;;;10512229;28;20101;-35
2023/09/26 21:31:34;;;;;;;2.65;1.90;;;24.60;74.40;;;;;;10519019;28;20052;-33
2023/09/26 21:36:36;;;;;;;;;;;24.60;74.70;;;;;;10519376;28;20553;-35
2023/09/26 21:41:40;;;;;;;3.25;1.55;;;24.60;74.90;;;;;;10526989;28;19959;-34
2023/09/26 21:46:42;;;;;;;2.40;1.42;;;24.70;74.20;;;;;;10498253;28;20489;-37
2023/09/26 21:51:44;;;;;;;2.90;1.50;;;24.70;73.90;;;;;;10525170;28;20135;-35
2023/09/26 21:56:48;;;;;;;2.33;1.67;;;24.70;73.80;;;;;;10522271;28;20098;-41
2023/09/26 22:01:50;;;;;;;5.55;2.50;;;24.70;73.70;;;;;;10518983;28;20098;-32
2023/09/26 22:06:52;;;;;;;;;;;24.50;74.70;;;;;;10518653;28;20075;-36
2023/09/26 22:11:55;;;;;;;3.90;1.77;;;24.50;75.40;;;;;;10525921;28;19971;-35
2023/09/26 22:16:57;;;;;;;2.90;1.67;;;24.50;74.80;;;;;;10511936;28;20079;-33
2023/09/26 22:21:59;;;;;;;2.47;1.60;;;24.60;74.90;;;;;;10524216;28;20040;-36
2023/09/26 22:27:02;;;;;;;;;;;24.60;75.00;;;;;;10521783;28;20568;-40
2023/09/26 22:32:04;;;;;;;2.92;1.77;;;24.60;74.50;;;;;;10529346;28;19982;-37
2023/09/26 22:37:06;;;;;;;2.65;1.80;;;24.60;74.40;;;;;;10514472;28;20088;-41
2023/09/26 22:42:09;;;;;;;;;;;24.60;74.50;;;;;;10505823;28;20105;-35
2023/09/26 22:47:12;;;;;;;2.45;1.48;;;24.60;74.60;;;;;;10516928;28;19923;-35
2023/09/26 22:52:14;;;;;;;3.72;2.00;;;24.50;74.60;;;;;;10512613;28;20059;-34
2023/09/26 22:57:18;;;;;;;3.63;1.75;;;24.50;74.60;;;;;;10522187;28;20052;-41
2023/09/26 23:02:20;;;;;;;2.38;1.60;;;24.50;74.70;;;;;;10524216;28;20075;-40
2023/09/26 23:07:21;;;;;;;;;;;24.50;74.70;;;;;;10505484;28;20064;-38
2023/09/26 23:12:25;;;;;;;3.35;1.52;;;24.50;74.70;;;;;;10522855;28;19924;-41
2023/09/26 23:17:27;;;;;;;5.13;1.77;;;24.50;74.80;;;;;;10518154;28;20499;-36
2023/09/26 23:22:29;;;;;;;2.75;1.60;;;24.40;74.90;;;;;;10522297;28;20373;-37
2023/09/26 23:27:32;;;;;;;;;;;24.50;75.10;;;;;;10524566;28;20052;-37
2023/09/26 23:32:34;;;;;;;4.43;1.33;;;24.40;75.20;;;;;;10532400;28;20319;-36
2023/09/26 23:37:36;;;;;;;3.97;1.73;;;24.40;75.20;;;;;;10521018;28;20071;-41
2023/09/26 23:42:41;;;;;;;4.38;1.80;;;24.40;75.30;;;;;;10523678;28;20046;-36
2023/09/26 23:47:43;;;;;;;2.08;1.40;;;24.30;75.30;;;;;;10536183;28;20063;-42
2023/09/26 23:52:45;;;;;;;;;;;24.30;75.50;;;;;;10523114;28;20051;-40
2023/09/26 23:57:48;;;;;;;2.25;1.55;;;24.30;75.60;;;;;;10529175;28;19924;-37
